createdAt,value
2018-11-23T00:00:02.117Z,18.6
2018-11-23T00:01:04.288Z,18.6
2018-11-23T00:02:06.725Z,18.6
2018-11-23T00:03:08.619Z,18.7
2018-11-23T00:04:10.781Z,18.6
2018-11-23T00:05:12.934Z,18.6
2018-11-23T00:06:15.085Z,18.6
2018-11-23T00:07:17.522Z,18.6
2018-11-23T00:08:19.669Z,18.7
2018-11-23T00:09:22.093Z,18.6
2018-11-23T00:10:24.240Z,18.5
2018-11-23T00:11:26.109Z,18.6
2018-11-23T00:12:28.550Z,18.7
2018-11-23T00:13:30.163Z,18.7
2018-11-23T00:14:32.590Z,18.8
2018-11-23T00:15:35.006Z,18.7
2018-11-23T00:16:37.158Z,18.7
2018-11-23T00:17:39.587Z,18.7
2018-11-23T00:18:41.467Z,18.8
2018-11-23T00:19:43.878Z,18.8
2018-11-23T00:20:46.309Z,18.8
2018-11-23T00:21:48.449Z,18.8
2018-11-23T00:22:50.588Z,18.8
2018-11-23T00:23:52.196Z,18.8
2018-11-23T00:24:54.628Z,18.8
2018-11-23T00:25:56.787Z,18.8
2018-11-23T00:26:58.645Z,18.7
2018-11-23T00:28:00.789Z,18.7
2018-11-23T00:29:02.967Z,18.9
2018-11-23T00:30:04.850Z,18.8
2018-11-23T00:31:06.996Z,18.9
2018-11-23T00:32:08.883Z,19
2018-11-23T00:33:11.319Z,18.9
2018-11-23T00:34:13.749Z,18.9
2018-11-23T00:35:15.912Z,19
2018-11-23T00:36:17.788Z,18.9
2018-11-23T00:37:19.665Z,18.9
2018-11-23T00:38:22.085Z,18.9
2018-11-23T00:39:24.225Z,19
2018-11-23T00:40:26.376Z,19.2
2018-11-23T00:41:28.520Z,19.1
2018-11-23T00:42:30.118Z,19.2
2018-11-23T00:43:32.276Z,19.1
2018-11-23T00:44:34.141Z,19
2018-11-23T00:46:41.029Z,18.9
2018-11-23T00:47:42.902Z,19
2018-11-23T00:48:44.773Z,19
2018-11-23T00:49:46.658Z,19.1
2018-11-23T00:50:48.821Z,19.1
2018-11-23T00:51:50.982Z,19
2018-11-23T00:52:53.420Z,19.1
2018-11-23T00:53:55.829Z,19.1
2018-11-23T00:54:58.268Z,19.1
2018-11-23T00:56:00.411Z,19.2
2018-11-23T00:57:02.559Z,19.1
2018-11-23T00:58:04.988Z,19.1
2018-11-23T00:59:06.871Z,19
2018-11-23T01:00:09.029Z,19.1
2018-11-23T01:01:10.910Z,19.2
2018-11-23T01:02:12.786Z,19.1
2018-11-23T01:03:15.247Z,19.1
2018-11-23T01:04:16.869Z,19.2
2018-11-23T01:05:18.450Z,19.2
2018-11-23T01:06:20.612Z,19.1
2018-11-23T01:07:22.499Z,19.3
2018-11-23T01:08:24.369Z,19.1
2018-11-23T01:09:26.524Z,19.1
2018-11-23T01:10:28.938Z,19.2
2018-11-23T01:11:30.829Z,19
2018-11-23T01:12:32.992Z,19
2018-11-23T01:13:35.141Z,19.1
2018-11-23T01:14:37.299Z,19.2
2018-11-23T01:15:39.738Z,19.3
2018-11-23T01:16:41.884Z,19.2
2018-11-23T01:17:44.039Z,19.3
2018-11-23T01:18:46.167Z,19.3
2018-11-23T01:19:48.318Z,19.2
2018-11-23T01:20:50.208Z,19.2
2018-11-23T01:21:52.083Z,19.2
2018-11-23T01:22:53.685Z,19.1
2018-11-23T01:23:55.858Z,19.1
2018-11-23T01:24:58.008Z,19.2
2018-11-23T01:25:59.887Z,19
2018-11-23T01:27:01.479Z,19.2
2018-11-23T01:28:03.917Z,19.2
2018-11-23T01:29:06.337Z,19.2
2018-11-23T01:30:08.209Z,19.2
2018-11-23T01:31:10.090Z,19.3
2018-11-23T01:32:12.520Z,19.2
2018-11-23T01:33:14.667Z,19.2
2018-11-23T01:34:17.109Z,19.2
2018-11-23T01:35:19.548Z,19.2
2018-11-23T01:36:21.976Z,19.4
2018-11-23T01:37:24.153Z,19.4
2018-11-23T01:38:26.579Z,19.3
2018-11-23T01:39:29.021Z,19.3
2018-11-23T01:40:31.169Z,19.2
2018-11-23T01:41:33.039Z,19.2
2018-11-23T01:42:35.177Z,19.3
2018-11-23T01:43:37.039Z,19.3
2018-11-23T01:44:39.476Z,19.2
2018-11-23T01:45:41.921Z,19.2
2018-11-23T01:46:44.085Z,19.3
2018-11-23T01:47:46.242Z,19.3
2018-11-23T01:48:47.829Z,19.2
2018-11-23T01:49:49.989Z,19.2
2018-11-23T01:50:52.423Z,19.4
2018-11-23T01:51:54.310Z,19.3
2018-11-23T01:52:56.192Z,19.2
2018-11-23T01:53:58.605Z,19.1
2018-11-23T01:55:00.753Z,19.1
2018-11-23T01:56:02.912Z,19.2
2018-11-23T01:57:04.778Z,19.3
2018-11-23T01:58:06.650Z,19.2
2018-11-23T01:59:08.797Z,19.1
2018-11-23T02:00:10.672Z,19.3
2018-11-23T02:01:12.830Z,19.2
2018-11-23T02:02:15.278Z,19.2
2018-11-23T02:03:17.156Z,19.2
2018-11-23T02:04:19.584Z,19.2
2018-11-23T02:05:21.735Z,19.2
2018-11-23T02:06:23.650Z,19.2
2018-11-23T02:07:26.077Z,19.3
2018-11-23T02:08:27.391Z,19.2
2018-11-23T02:09:29.526Z,19.3
2018-11-23T02:10:31.679Z,19.3
2018-11-23T02:11:34.119Z,19.3
2018-11-23T02:12:36.542Z,19.3
2018-11-23T02:13:38.399Z,19.2
2018-11-23T02:14:40.826Z,19.3
2018-11-23T02:15:42.432Z,19.3
2018-11-23T02:16:44.319Z,19.1
2018-11-23T02:17:46.194Z,19.3
2018-11-23T02:18:48.081Z,19.4
2018-11-23T02:19:49.967Z,19.2
2018-11-23T02:20:52.400Z,19.2
2018-11-23T02:21:54.572Z,19.3
2018-11-23T02:22:57.009Z,19.1
2018-11-23T02:23:59.168Z,19.3
2018-11-23T02:25:01.586Z,19.2
2018-11-23T02:26:03.449Z,19.3
2018-11-23T02:27:05.609Z,19.3
2018-11-23T02:28:07.760Z,19.3
2018-11-23T02:29:10.180Z,19.4
2018-11-23T02:30:12.614Z,19.2
2018-11-23T02:31:14.498Z,19.3
2018-11-23T02:32:16.918Z,19.2
2018-11-23T02:33:18.784Z,19.3
2018-11-23T02:34:20.935Z,19.3
2018-11-23T02:35:22.801Z,19.4
2018-11-23T02:36:25.216Z,19.2
2018-11-23T02:37:27.368Z,19.3
2018-11-23T02:38:29.529Z,19.3
2018-11-23T02:39:31.704Z,19.3
2018-11-23T02:40:34.119Z,19.3
2018-11-23T02:41:36.282Z,19.2
2018-11-23T02:42:38.169Z,19.2
2018-11-23T02:43:40.336Z,19.2
2018-11-23T02:44:42.769Z,19.2
2018-11-23T02:45:44.918Z,19.1
2018-11-23T02:46:47.078Z,19.2
2018-11-23T02:47:48.693Z,19.2
2018-11-23T02:48:50.859Z,19.1
2018-11-23T02:49:53.009Z,19.2
2018-11-23T02:50:55.180Z,19.1
2018-11-23T02:51:57.612Z,19.1
2018-11-23T02:52:59.232Z,19.1
2018-11-23T02:54:00.846Z,19
2018-11-23T02:55:02.771Z,18.8
2018-11-23T02:56:04.916Z,19
2018-11-23T02:57:06.779Z,18.8
2018-11-23T02:58:09.213Z,19
2018-11-23T02:59:11.634Z,18.9
2018-11-23T03:00:14.058Z,18.9
2018-11-23T03:01:16.482Z,18.9
2018-11-23T03:02:18.634Z,18.9
2018-11-23T03:03:20.498Z,18.9
2018-11-23T03:04:22.672Z,19
2018-11-23T03:05:25.098Z,19.1
2018-11-23T03:06:27.273Z,19
2018-11-23T03:07:29.698Z,18.9
2018-11-23T03:08:31.869Z,18.9
2018-11-23T03:09:34.290Z,18.9
2018-11-23T03:10:36.458Z,18.9
2018-11-23T03:11:38.620Z,18.9
2018-11-23T03:12:40.774Z,18.9
2018-11-23T03:13:42.651Z,18.9
2018-11-23T03:14:44.249Z,18.9
2018-11-23T03:15:46.396Z,18.9
2018-11-23T03:16:48.821Z,18.9
2018-11-23T03:17:51.272Z,18.8
2018-11-23T03:18:53.436Z,18.9
2018-11-23T03:19:55.861Z,18.8
2018-11-23T03:20:58.020Z,18.9
2018-11-23T03:22:00.442Z,18.9
2018-11-23T03:23:02.322Z,18.9
2018-11-23T03:24:04.742Z,18.8
2018-11-23T03:25:06.926Z,18.8
2018-11-23T03:26:08.809Z,18.8
2018-11-23T03:27:10.967Z,18.8
2018-11-23T03:28:13.120Z,18.9
2018-11-23T03:29:15.287Z,18.9
2018-11-23T03:30:16.897Z,18.9
2018-11-23T03:31:19.051Z,18.8
2018-11-23T03:32:21.219Z,18.8
2018-11-23T03:33:22.819Z,18.8
2018-11-23T03:34:24.994Z,18.8
2018-11-23T03:35:27.158Z,18.8
2018-11-23T03:36:29.022Z,18.8
2018-11-23T03:37:31.179Z,18.7
2018-11-23T03:38:32.492Z,18.8
2018-11-23T03:39:34.749Z,18.8
2018-11-23T03:40:36.091Z,18.8
2018-11-23T03:41:38.506Z,18.7
2018-11-23T03:42:40.671Z,18.7
2018-11-23T03:43:42.820Z,18.7
2018-11-23T03:44:44.983Z,18.8
2018-11-23T03:45:47.125Z,18.8
2018-11-23T03:46:49.552Z,18.7
2018-11-23T03:47:51.703Z,18.8
2018-11-23T03:48:53.550Z,18.8
2018-11-23T03:49:55.980Z,18.7
2018-11-23T03:50:57.861Z,18.8
2018-11-23T03:52:00.297Z,18.7
2018-11-23T03:53:02.744Z,18.8
2018-11-23T03:54:04.895Z,18.8
2018-11-23T03:55:07.058Z,18.8
2018-11-23T03:56:09.219Z,18.7
2018-11-23T03:57:11.678Z,18.7
2018-11-23T03:58:13.831Z,18.7
2018-11-23T03:59:16.265Z,18.7
2018-11-23T04:00:18.691Z,18.7
2018-11-23T04:01:21.107Z,18.7
2018-11-23T04:02:22.995Z,18.8
2018-11-23T04:03:25.435Z,18.8
2018-11-23T04:04:27.317Z,18.8
2018-11-23T04:05:29.470Z,18.7
2018-11-23T04:06:31.639Z,18.8
2018-11-23T04:07:33.796Z,18.7
2018-11-23T04:08:35.949Z,18.7
2018-11-23T04:09:38.105Z,18.7
2018-11-23T04:10:40.531Z,18.7
2018-11-23T04:11:42.947Z,18.7
2018-11-23T04:12:45.111Z,18.7
2018-11-23T04:13:47.543Z,18.7
2018-11-23T04:14:50.000Z,18.6
2018-11-23T04:15:52.163Z,18.7
2018-11-23T04:16:54.596Z,18.6
2018-11-23T04:17:56.746Z,18.7
2018-11-23T04:18:59.177Z,18.6
2018-11-23T04:20:01.600Z,18.6
2018-11-23T04:21:03.499Z,18.6
2018-11-23T04:22:05.407Z,18.7
2018-11-23T04:23:07.584Z,18.7
2018-11-23T04:24:10.008Z,18.7
2018-11-23T04:25:12.428Z,18.7
2018-11-23T04:26:14.299Z,18.7
2018-11-23T04:27:16.178Z,18.7
2018-11-23T04:28:18.046Z,18.7
2018-11-23T04:29:20.172Z,18.6
2018-11-23T04:30:22.331Z,18.7
2018-11-23T04:31:24.479Z,18.7
2018-11-23T04:32:26.614Z,18.7
2018-11-23T04:33:28.471Z,18.7
2018-11-23T04:34:30.903Z,18.6
2018-11-23T04:35:33.336Z,18.6
2018-11-23T04:36:35.487Z,18.8
2018-11-23T04:37:37.389Z,18.8
2018-11-23T04:38:39.295Z,18.7
2018-11-23T04:39:41.448Z,18.7
2018-11-23T04:40:43.103Z,18.6
2018-11-23T04:41:47.042Z,18.5
2018-11-23T04:42:48.646Z,18.6
2018-11-23T04:43:50.808Z,18.7
2018-11-23T04:44:53.241Z,18.7
2018-11-23T04:45:55.689Z,18.7
2018-11-23T04:46:57.575Z,18.7
2018-11-23T04:48:00.015Z,18.7
2018-11-23T04:49:02.427Z,18.7
2018-11-23T04:50:04.846Z,18.6
2018-11-23T04:51:06.988Z,18.7
2018-11-23T04:52:08.870Z,18.7
2018-11-23T04:53:11.292Z,18.6
2018-11-23T04:54:13.726Z,18.7
2018-11-23T04:55:15.590Z,18.6
2018-11-23T04:56:17.749Z,18.8
2018-11-23T04:57:19.893Z,18.7
2018-11-23T04:58:22.329Z,18.7
2018-11-23T04:59:24.483Z,18.7
2018-11-23T05:00:26.909Z,18.6
2018-11-23T05:01:29.065Z,18.6
2018-11-23T05:02:31.223Z,18.7
2018-11-23T05:03:33.648Z,18.6
2018-11-23T05:04:35.804Z,18.7
2018-11-23T05:05:37.952Z,18.6
2018-11-23T05:06:40.091Z,18.7
2018-11-23T05:07:42.242Z,18.7
2018-11-23T05:08:44.401Z,18.7
2018-11-23T05:09:46.562Z,18.7
2018-11-23T05:10:48.992Z,18.6
2018-11-23T05:11:51.139Z,18.6
2018-11-23T05:12:53.005Z,18.7
2018-11-23T05:13:55.434Z,18.6
2018-11-23T05:14:57.859Z,18.7
2018-11-23T05:16:00.291Z,18.6
2018-11-23T05:17:02.170Z,18.6
2018-11-23T05:18:04.037Z,18.7
2018-11-23T05:19:05.910Z,18.7
2018-11-23T05:20:08.351Z,18.7
2018-11-23T05:21:10.499Z,18.7
2018-11-23T05:22:12.379Z,18.7
2018-11-23T05:23:14.559Z,18.7
2018-11-23T05:24:16.976Z,18.6
2018-11-23T05:25:19.118Z,18.6
2018-11-23T05:26:21.011Z,18.6
2018-11-23T05:27:23.459Z,18.6
2018-11-23T05:28:25.616Z,18.6
2018-11-23T05:29:28.048Z,18.6
2018-11-23T05:30:30.472Z,18.5
2018-11-23T05:31:32.887Z,18.5
2018-11-23T05:32:34.756Z,18.5
2018-11-23T05:33:36.890Z,18.5
2018-11-23T05:34:38.778Z,18.6
2018-11-23T05:35:40.903Z,18.5
2018-11-23T05:36:42.499Z,18.6
2018-11-23T05:37:44.929Z,18.5
2018-11-23T05:38:47.359Z,18.5
2018-11-23T05:39:49.819Z,18.6
2018-11-23T05:40:52.251Z,18.7
2018-11-23T05:41:53.571Z,18.6
2018-11-23T05:42:55.990Z,18.6
2018-11-23T05:44:02.659Z,18.6
2018-11-23T05:45:05.092Z,18.6
2018-11-23T05:46:07.248Z,18.6
2018-11-23T05:47:08.851Z,18.5
2018-11-23T05:48:11.287Z,18.6
2018-11-23T05:49:13.168Z,18.6
2018-11-23T05:50:15.618Z,18.7
2018-11-23T05:51:18.031Z,18.6
2018-11-23T05:52:19.901Z,18.6
2018-11-23T05:53:21.754Z,18.7
2018-11-23T05:54:23.899Z,18.5
2018-11-23T05:55:26.063Z,18.6
2018-11-23T05:56:27.949Z,18.7
2018-11-23T05:57:29.803Z,18.6
2018-11-23T05:58:31.667Z,18.6
2018-11-23T05:59:34.097Z,18.7
2018-11-23T06:00:36.532Z,18.7
2018-11-23T06:01:38.686Z,18.6
2018-11-23T06:02:41.105Z,18.6
2018-11-23T06:03:42.697Z,18.6
2018-11-23T06:04:44.849Z,18.7
2018-11-23T06:05:47.267Z,18.6
2018-11-23T06:06:49.142Z,18.6
2018-11-23T06:07:51.301Z,18.7
2018-11-23T06:08:53.733Z,18.5
2018-11-23T06:09:55.089Z,18.6
2018-11-23T06:10:57.245Z,18.4
2018-11-23T06:11:59.395Z,18.6
2018-11-23T06:13:01.292Z,18.6
2018-11-23T06:14:03.720Z,18.5
2018-11-23T06:15:05.849Z,18.4
2018-11-23T06:16:08.016Z,18.4
2018-11-23T06:17:10.189Z,18.6
2018-11-23T06:18:12.039Z,18.6
2018-11-23T06:19:14.207Z,18.6
2018-11-23T06:20:16.649Z,18.6
2018-11-23T06:21:19.068Z,18.6
2018-11-23T06:22:21.199Z,18.5
2018-11-23T06:23:23.066Z,18.6
2018-11-23T06:25:30.209Z,18.6
2018-11-23T06:26:32.202Z,18.6
2018-11-23T06:27:34.675Z,18.6
2018-11-23T06:28:36.818Z,18.6
2018-11-23T06:29:38.697Z,18.5
2018-11-23T06:30:40.835Z,18.4
2018-11-23T06:31:42.979Z,18.6
2018-11-23T06:32:45.121Z,18.6
2018-11-23T06:33:46.701Z,18.6
2018-11-23T06:34:49.122Z,18.5
2018-11-23T06:35:51.277Z,18.6
2018-11-23T06:36:53.717Z,18.5
2018-11-23T06:37:55.877Z,18.5
2018-11-23T06:38:58.031Z,18.4
2018-11-23T06:40:00.460Z,18.6
2018-11-23T06:41:02.609Z,18.5
2018-11-23T06:42:09.999Z,18.6
2018-11-23T06:43:11.945Z,18.6
2018-11-23T06:44:14.148Z,18.6
2018-11-23T06:45:16.611Z,18.7
2018-11-23T06:46:18.817Z,18.6
2018-11-23T06:47:20.966Z,18.6
2018-11-23T06:48:22.817Z,18.5
2018-11-23T06:49:24.135Z,18.6
2018-11-23T06:50:26.018Z,18.5
2018-11-23T06:51:27.895Z,18.5
2018-11-23T06:52:30.072Z,18.5
2018-11-23T06:53:31.935Z,18.5
2018-11-23T06:54:34.098Z,18.5
2018-11-23T06:55:35.995Z,18.6
2018-11-23T06:56:38.139Z,18.5
2018-11-23T06:57:40.289Z,18.5
2018-11-23T06:58:42.165Z,18.4
2018-11-23T06:59:44.078Z,18.4
2018-11-23T07:00:46.506Z,18.5
2018-11-23T07:01:48.965Z,18.6
2018-11-23T07:02:51.397Z,18.5
2018-11-23T07:03:57.568Z,18.5
2018-11-23T07:05:00.083Z,18.6
2018-11-23T07:06:02.247Z,18.5
2018-11-23T07:07:04.413Z,18.6
2018-11-23T07:08:06.559Z,18.5
2018-11-23T07:09:08.722Z,18.6
2018-11-23T07:10:10.859Z,18.5
2018-11-23T07:11:13.286Z,18.5
2018-11-23T07:12:14.881Z,18.5
2018-11-23T07:13:17.307Z,18.4
2018-11-23T07:14:19.761Z,18.4
2018-11-23T07:15:22.185Z,18.6
2018-11-23T07:16:24.617Z,18.6
2018-11-23T07:17:27.058Z,18.5
2018-11-23T07:18:28.949Z,18.5
2018-11-23T07:19:31.090Z,18.6
2018-11-23T07:20:32.389Z,18.5
2018-11-23T07:21:34.547Z,18.5
2018-11-23T07:22:36.979Z,18.6
2018-11-23T07:23:39.418Z,18.5
2018-11-23T07:24:41.577Z,18.5
2018-11-23T07:25:43.484Z,18.5
2018-11-23T07:26:45.637Z,18.5
2018-11-23T07:27:47.809Z,18.6
2018-11-23T07:28:49.975Z,18.5
2018-11-23T07:29:52.111Z,18.4
2018-11-23T07:30:54.253Z,18.4
2018-11-23T07:32:00.131Z,18.5
2018-11-23T07:33:02.548Z,18.5
2018-11-23T07:34:04.982Z,18.6
2018-11-23T07:35:07.415Z,18.4
2018-11-23T07:36:09.335Z,18.6
2018-11-23T07:37:11.531Z,18.5
2018-11-23T07:38:13.395Z,18.5
2018-11-23T07:39:15.847Z,18.5
2018-11-23T07:40:18.009Z,18.5
2018-11-23T07:41:20.463Z,18.5
2018-11-23T07:42:22.910Z,18.6
2018-11-23T07:43:25.065Z,18.5
2018-11-23T07:44:27.498Z,18.5
2018-11-23T07:45:29.929Z,18.6
2018-11-23T07:46:32.091Z,18.5
2018-11-23T07:47:33.958Z,18.5
2018-11-23T07:48:35.863Z,18.6
2018-11-23T07:49:37.723Z,18.5
2018-11-23T07:50:40.172Z,18.5
2018-11-23T07:51:42.599Z,18.5
2018-11-23T07:52:44.758Z,18.5
2018-11-23T07:53:46.943Z,18.6
2018-11-23T07:54:48.814Z,18.5
2018-11-23T07:55:51.236Z,18.6
2018-11-23T07:56:53.673Z,18.6
2018-11-23T07:57:55.820Z,18.5
2018-11-23T07:58:57.975Z,18.6
2018-11-23T07:59:59.875Z,18.5
2018-11-23T08:01:02.049Z,18.5
2018-11-23T08:02:03.671Z,18.5
2018-11-23T08:03:05.560Z,18.6
2018-11-23T08:04:07.989Z,18.6
2018-11-23T08:05:10.416Z,18.6
2018-11-23T08:06:12.849Z,18.5
2018-11-23T08:07:15.278Z,18.5
2018-11-23T08:08:17.708Z,18.6
2018-11-23T08:09:20.125Z,18.5
2018-11-23T08:10:22.284Z,18.5
2018-11-23T08:11:24.159Z,18.5
2018-11-23T08:12:26.605Z,18.4
2018-11-23T08:13:29.019Z,18.5
2018-11-23T08:14:31.156Z,18.4
2018-11-23T08:15:33.020Z,18.6
2018-11-23T08:16:35.193Z,18.5
2018-11-23T08:17:37.623Z,18.5
2018-11-23T08:18:39.550Z,18.4
2018-11-23T08:20:46.966Z,18.5
2018-11-23T08:21:48.869Z,18.5
2018-11-23T08:22:51.297Z,18.4
2018-11-23T08:23:53.718Z,18.6
2018-11-23T08:24:55.599Z,18.5
2018-11-23T08:25:58.017Z,18.5
2018-11-23T08:27:00.444Z,18.5
2018-11-23T08:28:02.032Z,18.6
2018-11-23T08:29:04.469Z,18.5
2018-11-23T08:30:06.599Z,18.5
2018-11-23T08:31:08.473Z,18.5
2018-11-23T08:32:10.081Z,18.5
2018-11-23T08:33:12.520Z,18.4
2018-11-23T08:34:14.674Z,18.5
2018-11-23T08:35:17.102Z,18.5
2018-11-23T08:36:19.249Z,18.5
2018-11-23T08:37:21.397Z,18.4
2018-11-23T08:38:23.558Z,18.5
2018-11-23T08:39:25.727Z,18.6
2018-11-23T08:40:27.614Z,18.6
2018-11-23T08:41:29.485Z,18.5
2018-11-23T08:42:31.636Z,18.6
2018-11-23T08:43:33.527Z,18.5
2018-11-23T08:44:35.402Z,18.5
2018-11-23T08:45:37.838Z,18.5
2018-11-23T08:46:39.728Z,18.5
2018-11-23T08:47:41.894Z,18.5
2018-11-23T08:48:43.727Z,18.5
2018-11-23T08:49:46.151Z,18.5
2018-11-23T08:50:48.579Z,18.6
2018-11-23T08:51:50.731Z,18.5
2018-11-23T08:52:52.608Z,18.5
2018-11-23T08:53:55.070Z,18.5
2018-11-23T08:54:57.242Z,18.6
2018-11-23T08:55:59.408Z,18.5
2018-11-23T08:57:01.578Z,18.6
2018-11-23T08:58:03.737Z,18.6
2018-11-23T08:59:05.628Z,18.5
2018-11-23T09:00:07.513Z,18.6
2018-11-23T09:01:09.660Z,18.5
2018-11-23T09:02:12.088Z,18.6
2018-11-23T09:03:13.691Z,18.5
2018-11-23T09:04:15.588Z,18.6
2018-11-23T09:05:17.755Z,18.6
2018-11-23T09:06:20.189Z,18.6
2018-11-23T09:07:22.630Z,18.5
2018-11-23T09:08:25.059Z,18.4
2018-11-23T09:09:27.484Z,18.5
2018-11-23T09:10:29.611Z,18.4
2018-11-23T09:11:31.499Z,18.5
2018-11-23T09:12:33.388Z,18.6
2018-11-23T09:13:35.804Z,18.6
2018-11-23T09:14:37.960Z,18.5
2018-11-23T09:15:40.377Z,18.5
2018-11-23T09:16:42.234Z,18.5
2018-11-23T09:17:44.389Z,18.5
2018-11-23T09:18:46.567Z,18.5
2018-11-23T09:19:48.459Z,18.4
2018-11-23T09:20:50.633Z,18.5
2018-11-23T09:21:52.800Z,18.5
2018-11-23T09:22:55.216Z,18.5
2018-11-23T09:23:57.697Z,18.5
2018-11-23T09:24:59.699Z,18.5
2018-11-23T09:26:01.580Z,18.6
2018-11-23T09:27:03.468Z,18.5
2018-11-23T09:28:05.892Z,18.5
2018-11-23T09:29:08.045Z,18.4
2018-11-23T09:30:09.925Z,18.4
2018-11-23T09:31:12.358Z,18.4
2018-11-23T09:32:14.788Z,18.4
2018-11-23T09:33:16.952Z,18.5
2018-11-23T09:34:19.398Z,18.5
2018-11-23T09:35:21.818Z,18.6
2018-11-23T09:36:23.965Z,18.6
2018-11-23T09:37:26.113Z,18.5
2018-11-23T09:38:28.543Z,18.5
2018-11-23T09:39:30.747Z,18.5
2018-11-23T09:40:32.344Z,18.5
2018-11-23T09:41:34.768Z,18.5
2018-11-23T09:42:37.187Z,18.6
2018-11-23T09:43:39.700Z,18.5
2018-11-23T09:44:42.184Z,18.6
2018-11-23T09:45:44.613Z,18.5
2018-11-23T09:46:46.463Z,18.5
2018-11-23T09:47:48.342Z,18.5
2018-11-23T09:48:50.778Z,18.5
2018-11-23T09:49:52.664Z,18.4
2018-11-23T09:50:55.092Z,18.5
2018-11-23T09:51:57.241Z,18.6
2018-11-23T09:52:58.863Z,18.5
2018-11-23T09:54:01.290Z,18.4
2018-11-23T09:55:03.418Z,18.5
2018-11-23T09:56:05.298Z,18.6
2018-11-23T09:57:07.744Z,18.5
2018-11-23T09:58:10.181Z,18.4
2018-11-23T09:59:12.615Z,18.5
2018-11-23T10:00:14.767Z,18.5
2018-11-23T10:01:16.672Z,18.6
2018-11-23T10:02:18.828Z,18.4
2018-11-23T10:03:20.992Z,18.5
2018-11-23T10:04:22.605Z,18.6
2018-11-23T10:05:25.019Z,18.6
2018-11-23T10:06:27.445Z,18.5
2018-11-23T10:07:29.595Z,18.5
2018-11-23T10:09:37.032Z,18.5
2018-11-23T10:10:39.179Z,18.5
2018-11-23T10:11:41.606Z,18.5
2018-11-23T10:12:43.484Z,18.5
2018-11-23T10:13:45.915Z,18.6
2018-11-23T10:14:47.791Z,18.5
2018-11-23T10:15:50.219Z,18.4
2018-11-23T10:16:52.373Z,18.5
2018-11-23T10:17:54.803Z,18.4
2018-11-23T10:18:56.969Z,18.5
2018-11-23T10:19:59.418Z,18.5
2018-11-23T10:21:01.056Z,18.5
2018-11-23T10:22:03.473Z,18.6
2018-11-23T10:23:05.670Z,18.5
2018-11-23T10:24:08.113Z,18.5
2018-11-23T10:25:10.040Z,18.6
2018-11-23T10:26:12.478Z,18.5
2018-11-23T10:27:14.077Z,18.5
2018-11-23T10:28:16.239Z,18.5
2018-11-23T10:29:18.674Z,18.5
2018-11-23T10:30:20.527Z,18.5
2018-11-23T10:31:22.686Z,18.4
2018-11-23T10:32:24.857Z,18.4
2018-11-23T10:33:28.943Z,18.5
2018-11-23T10:34:31.108Z,18.4
2018-11-23T10:35:33.342Z,18.5
2018-11-23T10:36:35.208Z,18.5
2018-11-23T10:37:37.640Z,18.5
2018-11-23T10:38:39.789Z,18.5
2018-11-23T10:39:41.946Z,18.4
2018-11-23T10:40:44.094Z,18.4
2018-11-23T10:41:46.284Z,18.5
2018-11-23T10:42:48.709Z,18.4
2018-11-23T10:43:50.334Z,18.3
2018-11-23T10:44:52.236Z,18.5
2018-11-23T10:45:54.410Z,18.5
2018-11-23T10:46:56.270Z,18.5
2018-11-23T10:47:58.417Z,18.3
2018-11-23T10:49:00.275Z,18.5
2018-11-23T10:50:02.702Z,18.5
2018-11-23T10:51:04.859Z,18.4
2018-11-23T10:52:07.339Z,18.4
2018-11-23T10:53:09.768Z,18.5
2018-11-23T10:54:12.209Z,18.4
2018-11-23T10:55:14.641Z,18.5
2018-11-23T10:56:17.078Z,18.4
2018-11-23T10:57:19.508Z,18.5
2018-11-23T10:58:21.932Z,18.5
2018-11-23T10:59:24.097Z,18.6
2018-11-23T11:00:26.532Z,18.5
2018-11-23T11:01:28.115Z,18.5
2018-11-23T11:02:30.556Z,18.5
2018-11-23T11:03:32.728Z,18.5
2018-11-23T11:04:35.158Z,18.4
2018-11-23T11:05:37.308Z,18.5
2018-11-23T11:06:39.462Z,18.5
2018-11-23T11:07:41.889Z,18.5
2018-11-23T11:08:44.320Z,18.6
2018-11-23T11:09:46.176Z,18.5
2018-11-23T11:10:48.363Z,18.5
2018-11-23T11:11:50.675Z,18.6
2018-11-23T11:12:53.120Z,18.4
2018-11-23T11:13:55.562Z,18.5
2018-11-23T11:14:57.142Z,18.4
2018-11-23T11:15:59.299Z,18.4
2018-11-23T11:17:01.462Z,18.6
2018-11-23T11:18:03.612Z,18.5
2018-11-23T11:19:05.748Z,18.5
2018-11-23T11:20:07.636Z,18.6
2018-11-23T11:21:09.797Z,18.4
2018-11-23T11:22:11.948Z,18.4
2018-11-23T11:23:14.112Z,18.5
2018-11-23T11:24:16.256Z,18.5
2018-11-23T11:25:18.414Z,18.4
2018-11-23T11:26:20.577Z,18.4
2018-11-23T11:27:23.008Z,18.5
2018-11-23T11:28:24.886Z,18.4
2018-11-23T11:29:27.338Z,18.4
2018-11-23T11:30:29.488Z,18.5
2018-11-23T11:31:31.910Z,18.5
2018-11-23T11:32:34.346Z,18.5
2018-11-23T11:33:36.538Z,18.6
2018-11-23T11:34:38.968Z,18.5
2018-11-23T11:35:41.126Z,18.5
2018-11-23T11:36:43.544Z,18.5
2018-11-23T11:37:45.169Z,18.4
2018-11-23T11:38:47.609Z,18.4
2018-11-23T11:39:49.762Z,18.5
2018-11-23T11:40:51.916Z,18.4
2018-11-23T11:41:54.077Z,18.5
2018-11-23T11:42:56.518Z,18.5
2018-11-23T11:43:58.403Z,18.5
2018-11-23T11:45:00.561Z,18.5
2018-11-23T11:46:02.720Z,18.6
2018-11-23T11:47:04.578Z,18.6
2018-11-23T11:48:06.998Z,18.5
2018-11-23T11:49:09.431Z,18.4
2018-11-23T11:50:11.567Z,18.6
2018-11-23T11:51:14.747Z,18.5
2018-11-23T11:52:20.496Z,18.6
2018-11-23T11:53:22.632Z,18.5
2018-11-23T11:54:24.520Z,18.5
2018-11-23T11:55:26.940Z,18.4
2018-11-23T11:56:29.102Z,18.5
2018-11-23T11:57:31.234Z,18.6
2018-11-23T11:58:33.402Z,18.5
2018-11-23T11:59:35.542Z,18.5
2018-11-23T12:00:37.429Z,18.5
2018-11-23T12:01:39.856Z,18.4
2018-11-23T12:02:41.999Z,18.4
2018-11-23T12:03:44.152Z,18.5
2018-11-23T12:04:46.579Z,18.5
2018-11-23T12:05:48.745Z,18.4
2018-11-23T12:06:50.900Z,18.4
2018-11-23T12:07:53.325Z,18.4
2018-11-23T12:08:55.186Z,18.4
2018-11-23T12:09:57.361Z,18.5
2018-11-23T12:10:59.785Z,18.4
2018-11-23T12:12:01.940Z,18.5
2018-11-23T12:13:04.107Z,18.5
2018-11-23T12:14:06.272Z,18.4
2018-11-23T12:15:08.395Z,18.4
2018-11-23T12:16:10.378Z,18.4
2018-11-23T12:17:12.295Z,18.5
2018-11-23T12:18:14.443Z,18.5
2018-11-23T12:19:16.070Z,18.5
2018-11-23T12:20:18.200Z,18.4
2018-11-23T12:21:20.622Z,18.5
2018-11-23T12:22:23.069Z,18.5
2018-11-23T12:23:25.204Z,18.5
2018-11-23T12:24:27.379Z,18.4
2018-11-23T12:25:29.007Z,18.5
2018-11-23T12:26:31.181Z,18.4
2018-11-23T12:27:33.049Z,18.4
2018-11-23T12:28:35.214Z,18.5
2018-11-23T12:29:37.392Z,18.5
2018-11-23T12:30:39.007Z,18.4
2018-11-23T12:31:41.147Z,18.4
2018-11-23T12:32:43.005Z,18.5
2018-11-23T12:33:45.382Z,18.5
2018-11-23T12:34:47.711Z,18.4
2018-11-23T12:35:49.876Z,18.5
2018-11-23T12:36:52.500Z,18.5
2018-11-23T12:37:54.677Z,18.5
2018-11-23T12:38:56.870Z,18.5
2018-11-23T12:39:59.029Z,18.5
2018-11-23T12:41:01.471Z,18.4
2018-11-23T12:42:03.059Z,18.4
2018-11-23T12:43:05.500Z,18.4
2018-11-23T12:44:07.972Z,18.4
2018-11-23T12:45:10.416Z,18.4
2018-11-23T12:46:12.850Z,18.4
2018-11-23T12:47:15.019Z,18.5
2018-11-23T12:48:16.931Z,18.5
2018-11-23T12:49:19.111Z,18.5
2018-11-23T12:50:21.550Z,18.4
2018-11-23T12:51:23.199Z,18.5
2018-11-23T12:52:25.373Z,18.5
2018-11-23T12:53:27.235Z,18.5
2018-11-23T12:54:29.882Z,18.5
2018-11-23T12:55:32.199Z,18.5
2018-11-23T12:56:34.378Z,18.6
2018-11-23T12:57:36.546Z,18.6
2018-11-23T12:58:38.696Z,18.5
2018-11-23T12:59:40.593Z,18.6
2018-11-23T13:00:42.742Z,18.5
2018-11-23T13:01:45.573Z,18.5
2018-11-23T13:02:47.913Z,18.5
2018-11-23T13:03:50.355Z,18.4
2018-11-23T13:04:52.237Z,18.5
2018-11-23T13:05:54.507Z,18.5
2018-11-23T13:06:56.729Z,18.5
2018-11-23T13:07:58.884Z,18.6
2018-11-23T13:09:01.009Z,18.5
2018-11-23T13:10:03.453Z,18.5
2018-11-23T13:11:05.623Z,18.4
2018-11-23T13:12:07.809Z,18.4
2018-11-23T13:13:09.970Z,18.4
2018-11-23T13:14:12.431Z,18.4
2018-11-23T13:15:14.071Z,18.5
2018-11-23T13:16:15.971Z,18.5
2018-11-23T13:17:18.151Z,18.6
2018-11-23T13:18:20.347Z,18.5
2018-11-23T13:19:22.773Z,18.4
2018-11-23T13:20:24.662Z,18.5
2018-11-23T13:21:25.987Z,18.5
2018-11-23T13:22:27.912Z,18.4
2018-11-23T13:23:30.060Z,18.5
2018-11-23T13:24:31.949Z,18.5
2018-11-23T13:25:33.844Z,18.5
2018-11-23T13:26:36.298Z,18.5
2018-11-23T13:27:37.933Z,18.4
2018-11-23T13:28:40.080Z,18.4
2018-11-23T13:29:42.252Z,18.4
2018-11-23T13:30:44.637Z,18.5
2018-11-23T13:31:46.670Z,18.4
2018-11-23T13:32:48.271Z,18.6
2018-11-23T13:33:50.422Z,18.4
2018-11-23T13:34:52.677Z,18.6
2018-11-23T13:35:55.222Z,18.4
2018-11-23T13:36:57.369Z,18.5
2018-11-23T13:37:59.271Z,18.5
2018-11-23T13:39:01.689Z,18.5
2018-11-23T13:40:03.584Z,18.5
2018-11-23T13:41:06.043Z,18.4
2018-11-23T13:42:07.930Z,18.4
2018-11-23T13:43:09.822Z,18.5
2018-11-23T13:44:11.698Z,18.5
2018-11-23T13:45:13.858Z,18.4
2018-11-23T13:46:16.318Z,18.5
2018-11-23T13:47:18.473Z,18.5
2018-11-23T13:48:20.696Z,18.5
2018-11-23T13:49:23.148Z,18.4
2018-11-23T13:50:25.307Z,18.4
2018-11-23T13:51:27.743Z,18.4
2018-11-23T13:52:30.187Z,18.5